Time;durP1;ratioP1;P1;durP2;ratioP2;P2;SDS_P1;SDS_P2;PMS_P1;PMS_P2;Temp;Humidity;BMP_temperature;BMP_pressure;BME280_temperature;BME280_humidity;BME280_pressure;Samples;Min_cycle;Max_cycle;Signal;HPM_P1;HPM_P2
2021/07/01 00:02:09;;;;;;;8.50;2.25;;;;;;;;;;5073072;28;20059;-40
2021/07/01 00:04:36;;;;;;;13.13;2.60;;;;;;;;;;5093893;28;20012;-33
2021/07/01 00:07:03;;;;;;;7.50;2.35;;;;;;;;;;5093947;28;20020;-37
2021/07/01 00:09:30;;;;;;;11.35;2.30;;;;;;;;;;5093410;28;20016;-37
2021/07/01 00:12:00;;;;;;;8.82;2.10;;;;;;;;;;5091419;28;20017;-33
2021/07/01 00:14:27;;;;;;;7.65;2.50;;;;;;;;;;5093722;28;20024;-38
2021/07/01 00:16:55;;;;;;;6.60;2.03;;;;;;;;;;5094224;28;20008;-37
2021/07/01 00:19:23;;;;;;;8.65;2.28;;;;;;;;;;5093478;28;20020;-32
2021/07/01 00:21:50;;;;;;;9.60;2.13;;;;;;;;;;5074830;28;20062;-37
2021/07/01 00:24:17;;;;;;;9.13;2.33;;;;;;;;;;5092108;28;20016;-34
2021/07/01 00:26:44;;;;;;;25.80;3.47;;;;;;;;;;5092452;28;20024;-39
2021/07/01 00:29:11;;;;;;;13.45;2.33;;;;;;;;;;5093451;28;20016;-39
2021/07/01 00:31:38;;;;;;;9.07;2.42;;;;;;;;;;5089810;28;20044;-36
2021/07/01 00:34:05;;;;;;;4.22;1.73;;;;;;;;;;5092376;28;20016;-39
2021/07/01 00:36:32;;;;;;;19.42;2.47;;;;;;;;;;5091322;28;20027;-48
2021/07/01 00:38:59;;;;;;;12.25;2.25;;;;;;;;;;5093456;28;20468;-34
2021/07/01 00:41:27;;;;;;;18.15;2.38;;;;;;;;;;5092836;28;20040;-33
2021/07/01 00:43:54;;;;;;;7.35;2.22;;;;;;;;;;5093612;28;20048;-40
2021/07/01 00:46:21;;;;;;;10.57;2.67;;;;;;;;;;5092740;28;20044;-41
2021/07/01 00:48:48;;;;;;;9.05;2.42;;;;;;;;;;5083294;28;20056;-33
2021/07/01 00:51:17;;;;;;;7.72;2.33;;;;;;;;;;5065875;28;20049;-31
2021/07/01 00:53:44;;;;;;;16.88;2.97;;;;;;;;;;5079659;28;20082;-35
2021/07/01 00:56:11;;;;;;;10.88;2.80;;;;;;;;;;5091797;28;20532;-38
2021/07/01 00:58:38;;;;;;;9.38;2.40;;;;;;;;;;5093518;28;20081;-35
2021/07/01 01:01:05;;;;;;;10.05;2.70;;;;;;;;;;5093791;28;20475;-33
2021/07/01 01:03:34;;;;;;;10.23;2.60;;;;;;;;;;5092637;28;20028;-35
2021/07/01 01:06:02;;;;;;;10.85;2.95;;;;;;;;;;5092827;28;20085;-32
2021/07/01 01:08:29;;;;;;;17.85;2.97;;;;;;;;;;5093016;28;20036;-39
2021/07/01 01:10:56;;;;;;;11.07;2.72;;;;;;;;;;5093461;28;20024;-36
2021/07/01 01:13:26;;;;;;;22.70;3.25;;;;;;;;;;5093157;28;20027;-40
2021/07/01 01:15:58;;;;;;;8.73;2.60;;;;;;;;;;5093361;28;20111;-33
2021/07/01 01:18:25;;;;;;;9.07;2.42;;;;;;;;;;5092856;28;20020;-37
2021/07/01 01:20:53;;;;;;;11.70;3.20;;;;;;;;;;5093242;28;20574;-32
2021/07/01 01:23:21;;;;;;;15.30;3.15;;;;;;;;;;5092037;28;20070;-35
2021/07/01 01:25:49;;;;;;;14.75;3.30;;;;;;;;;;5093221;28;20071;-36
2021/07/01 01:28:17;;;;;;;14.00;2.85;;;;;;;;;;5092810;28;20123;-32
2021/07/01 01:30:44;;;;;;;10.82;3.10;;;;;;;;;;5092745;28;20032;-36
2021/07/01 01:33:11;;;;;;;14.00;3.40;;;;;;;;;;5092505;28;20012;-33
2021/07/01 01:35:39;;;;;;;9.65;2.83;;;;;;;;;;5092721;28;20544;-34
2021/07/01 01:38:10;;;;;;;9.73;2.58;;;;;;;;;;5093136;28;20024;-33
2021/07/01 01:40:37;;;;;;;15.88;3.25;;;;;;;;;;5087649;28;20068;-38
2021/07/01 01:43:05;;;;;;;9.18;2.83;;;;;;;;;;5072204;28;20090;-41
2021/07/01 01:45:32;;;;;;;9.38;2.85;;;;;;;;;;5072391;28;20016;-38
2021/07/01 01:47:59;;;;;;;9.65;2.58;;;;;;;;;;5071931;28;20016;-39
2021/07/01 01:50:26;;;;;;;15.55;3.25;;;;;;;;;;5072693;28;20132;-34
2021/07/01 01:52:53;;;;;;;12.43;2.80;;;;;;;;;;5072536;28;20033;-33
2021/07/01 01:55:20;;;;;;;12.05;2.75;;;;;;;;;;5074568;28;20016;-45
2021/07/01 01:57:49;;;;;;;10.20;2.75;;;;;;;;;;5080453;28;20028;-35
2021/07/01 02:00:17;;;;;;;18.70;3.00;;;;;;;;;;5072385;28;20012;-31
2021/07/01 02:02:44;;;;;;;11.32;2.30;;;;;;;;;;5071856;28;20068;-49
2021/07/01 02:05:12;;;;;;;6.95;2.47;;;;;;;;;;5072439;28;20095;-59
2021/07/01 02:07:39;;;;;;;15.10;2.95;;;;;;;;;;5072745;28;20027;-46
2021/07/01 02:10:08;;;;;;;14.85;2.20;;;;;;;;;;5071993;28;20082;-36
2021/07/01 02:12:35;;;;;;;11.45;2.55;;;;;;;;;;5091544;28;20545;-62
2021/07/01 02:15:03;;;;;;;8.45;2.30;;;;;;;;;;5081582;28;20012;-52
2021/07/01 02:17:33;;;;;;;12.70;2.80;;;;;;;;;;5081464;28;20021;-38
2021/07/01 02:20:00;;;;;;;11.23;2.50;;;;;;;;;;5088743;28;20039;-50
2021/07/01 02:22:27;;;;;;;11.60;2.40;;;;;;;;;;5091165;28;20390;-41
2021/07/01 02:24:54;;;;;;;10.95;2.13;;;;;;;;;;5079269;28;20092;-39
2021/07/01 02:27:21;;;;;;;4.88;1.90;;;;;;;;;;5091072;28;20035;-37
2021/07/01 02:29:48;;;;;;;10.25;2.33;;;;;;;;;;5080775;28;20016;-46
2021/07/01 02:32:15;;;;;;;12.02;2.25;;;;;;;;;;5081522;28;20423;-36
2021/07/01 02:34:42;;;;;;;7.07;2.35;;;;;;;;;;5080370;28;20080;-47
2021/07/01 02:37:10;;;;;;;10.30;2.78;;;;;;;;;;5088320;28;20032;-42
2021/07/01 02:39:37;;;;;;;15.05;2.47;;;;;;;;;;5085839;28;20032;-34
2021/07/01 02:42:04;;;;;;;7.03;2.20;;;;;;;;;;5081873;28;20063;-48
2021/07/01 02:44:32;;;;;;;7.55;2.35;;;;;;;;;;5081294;28;20031;-38
2021/07/01 02:46:59;;;;;;;8.20;2.20;;;;;;;;;;5080674;28;20074;-35
2021/07/01 02:49:26;;;;;;;8.02;2.13;;;;;;;;;;5089440;28;20023;-34
2021/07/01 02:51:53;;;;;;;6.10;2.45;;;;;;;;;;5067953;28;20032;-33
2021/07/01 02:54:21;;;;;;;5.40;1.98;;;;;;;;;;5084456;28;20017;-34
2021/07/01 02:56:48;;;;;;;9.75;1.95;;;;;;;;;;5085987;28;20367;-34
2021/07/01 02:59:17;;;;;;;9.48;2.00;;;;;;;;;;5080280;28;20431;-34
2021/07/01 03:01:44;;;;;;;15.60;2.30;;;;;;;;;;5088133;28;20032;-31
2021/07/01 03:04:12;;;;;;;7.28;2.22;;;;;;;;;;5090244;28;20026;-33
2021/07/01 03:06:39;;;;;;;9.13;2.85;;;;;;;;;;5090240;28;20028;-42
2021/07/01 03:09:06;;;;;;;5.30;2.22;;;;;;;;;;5079738;28;20116;-38
2021/07/01 03:11:34;;;;;;;7.63;2.15;;;;;;;;;;5090727;28;20019;-37
2021/07/01 03:14:01;;;;;;;8.30;2.45;;;;;;;;;;5091704;28;20421;-35
2021/07/01 03:16:28;;;;;;;8.32;2.40;;;;;;;;;;5091302;28;20051;-40
2021/07/01 03:18:55;;;;;;;10.40;2.30;;;;;;;;;;5091712;28;20123;-33
2021/07/01 03:21:23;;;;;;;10.10;2.45;;;;;;;;;;5091152;28;20031;-34
2021/07/01 03:23:50;;;;;;;4.95;1.80;;;;;;;;;;5091389;28;20039;-32
2021/07/01 03:26:18;;;;;;;5.93;1.92;;;;;;;;;;5091706;28;20055;-43
2021/07/01 03:28:45;;;;;;;5.47;2.17;;;;;;;;;;5078020;28;20028;-40
2021/07/01 03:31:13;;;;;;;10.20;2.30;;;;;;;;;;5097828;28;20027;-37
2021/07/01 03:33:40;;;;;;;9.13;2.35;;;;;;;;;;5097422;28;20027;-37
2021/07/01 03:36:07;;;;;;;8.98;2.05;;;;;;;;;;5098112;28;20024;-34
2021/07/01 03:38:36;;;;;;;5.90;1.85;;;;;;;;;;5097801;28;20073;-43
2021/07/01 03:41:04;;;;;;;13.63;1.65;;;;;;;;;;5097855;28;20028;-39
2021/07/01 03:43:33;;;;;;;9.68;2.35;;;;;;;;;;5097564;28;20044;-34
2021/07/01 03:46:00;;;;;;;18.15;2.17;;;;;;;;;;5097988;28;20024;-39
2021/07/01 03:48:28;;;;;;;8.05;2.80;;;;;;;;;;5097353;28;20032;-45
2021/07/01 03:50:55;;;;;;;9.10;2.08;;;;;;;;;;5098122;28;20024;-33
2021/07/01 03:53:22;;;;;;;6.38;1.83;;;;;;;;;;5097698;28;20463;-38
2021/07/01 03:55:49;;;;;;;2.85;1.50;;;;;;;;;;5097839;28;20035;-32
2021/07/01 03:58:16;;;;;;;5.53;1.77;;;;;;;;;;5097494;28;20016;-45
2021/07/01 04:00:43;;;;;;;4.78;1.70;;;;;;;;;;5098118;28;20056;-40
2021/07/01 04:03:10;;;;;;;9.50;2.10;;;;;;;;;;5098221;28;20042;-39
2021/07/01 04:05:37;;;;;;;5.45;1.90;;;;;;;;;;5097210;28;20034;-38
2021/07/01 04:08:04;;;;;;;6.13;1.88;;;;;;;;;;5098003;28;20375;-34
2021/07/01 04:10:31;;;;;;;4.70;1.90;;;;;;;;;;5097820;28;20016;-42
2021/07/01 04:12:58;;;;;;;5.75;1.90;;;;;;;;;;5097795;28;20149;-35
2021/07/01 04:15:25;;;;;;;4.53;1.50;;;;;;;;;;5097119;28;20091;-35
2021/07/01 04:17:52;;;;;;;9.60;1.63;;;;;;;;;;5098092;28;20034;-35
2021/07/01 04:20:20;;;;;;;5.38;1.90;;;;;;;;;;5097511;28;20102;-33
2021/07/01 04:22:47;;;;;;;5.07;1.77;;;;;;;;;;5097800;28;20028;-50
2021/07/01 04:25:14;;;;;;;6.25;2.20;;;;;;;;;;5097553;28;20031;-42
2021/07/01 04:27:41;;;;;;;4.28;1.80;;;;;;;;;;5097695;28;20012;-43
2021/07/01 04:30:08;;;;;;;6.35;1.88;;;;;;;;;;5097183;28;20023;-36
2021/07/01 04:32:35;;;;;;;3.67;1.73;;;;;;;;;;5097871;28;20165;-40
2021/07/01 04:35:02;;;;;;;6.55;1.70;;;;;;;;;;5097022;28;20020;-35
2021/07/01 04:37:29;;;;;;;4.68;1.75;;;;;;;;;;5097830;28;20036;-37
2021/07/01 04:39:57;;;;;;;4.60;1.60;;;;;;;;;;5093894;28;20413;-33
2021/07/01 04:42:24;;;;;;;4.28;1.70;;;;;;;;;;5094183;28;20060;-36
2021/07/01 04:44:51;;;;;;;5.85;1.65;;;;;;;;;;5094168;28;20429;-35
2021/07/01 04:47:18;;;;;;;4.38;1.88;;;;;;;;;;5075944;28;20024;-43
2021/07/01 04:49:45;;;;;;;3.75;1.58;;;;;;;;;;5094225;28;20028;-33
2021/07/01 04:52:12;;;;;;;5.53;1.98;;;;;;;;;;5093627;28;20028;-38
2021/07/01 04:54:39;;;;;;;3.28;1.73;;;;;;;;;;5094347;28;20510;-37
2021/07/01 04:57:06;;;;;;;4.32;1.80;;;;;;;;;;5093576;28;20477;-34
2021/07/01 04:59:33;;;;;;;3.33;1.60;;;;;;;;;;5094303;28;20016;-36
2021/07/01 05:02:00;;;;;;;5.28;1.75;;;;;;;;;;5093824;28;20483;-41
2021/07/01 05:04:27;;;;;;;3.13;1.48;;;;;;;;;;5093935;28;20398;-35
2021/07/01 05:06:54;;;;;;;4.32;2.13;;;;;;;;;;5093405;28;20027;-31
2021/07/01 05:09:21;;;;;;;5.47;1.60;;;;;;;;;;5094218;28;20040;-36
2021/07/01 05:11:49;;;;;;;3.42;1.48;;;;;;;;;;5093556;28;20024;-30
2021/07/01 05:14:15;;;;;;;5.07;1.67;;;;;;;;;;5094023;28;20095;-32
2021/07/01 05:16:42;;;;;;;3.78;1.63;;;;;;;;;;5093376;28;20028;-34
2021/07/01 05:19:09;;;;;;;3.90;1.52;;;;;;;;;;5093349;28;20058;-34
2021/07/01 05:21:36;;;;;;;5.32;1.58;;;;;;;;;;5075762;28;20036;-35
2021/07/01 05:24:04;;;;;;;4.88;1.55;;;;;;;;;;5093611;28;20390;-41
2021/07/01 05:26:31;;;;;;;4.18;1.75;;;;;;;;;;5093152;28;20027;-33
2021/07/01 05:28:58;;;;;;;4.15;1.75;;;;;;;;;;5093102;28;20021;-44
2021/07/01 05:31:25;;;;;;;4.57;1.50;;;;;;;;;;5093841;28;20095;-40
2021/07/01 05:33:52;;;;;;;3.60;1.40;;;;;;;;;;5092800;28;20407;-39
2021/07/01 05:36:18;;;;;;;3.65;1.40;;;;;;;;;;5075086;28;20023;-37
2021/07/01 05:38:45;;;;;;;3.80;1.40;;;;;;;;;;5092915;28;20371;-38
2021/07/01 05:41:12;;;;;;;5.72;1.50;;;;;;;;;;5093266;28;20083;-41
2021/07/01 05:43:39;;;;;;;4.20;1.58;;;;;;;;;;5092847;28;20048;-32
2021/07/01 05:46:06;;;;;;;6.15;1.92;;;;;;;;;;5093203;28;20020;-36
2021/07/01 05:48:33;;;;;;;3.50;1.45;;;;;;;;;;5093561;28;20476;-57
2021/07/01 05:51:03;;;;;;;3.90;1.70;;;;;;;;;;5092379;28;20024;-44
2021/07/01 05:53:37;;;;;;;6.32;2.35;;;;;;;;;;5093191;28;20026;-38
2021/07/01 05:56:04;;;;;;;5.07;1.48;;;;;;;;;;5092664;28;20019;-36
2021/07/01 05:58:33;;;;;;;4.00;2.08;;;;;;;;;;5093246;28;20063;-35
2021/07/01 06:01:01;;;;;;;3.35;1.77;;;;;;;;;;5092568;28;20016;-36
2021/07/01 06:03:28;;;;;;;4.82;1.80;;;;;;;;;;5093189;28;20028;-35
2021/07/01 06:06:01;;;;;;;5.65;2.00;;;;;;;;;;5091981;28;20020;-56
2021/07/01 06:08:29;;;;;;;4.45;1.33;;;;;;;;;;5092846;28;20020;-32
2021/07/01 06:11:00;;;;;;;3.50;1.55;;;;;;;;;;5092125;28;20027;-35
2021/07/01 06:13:29;;;;;;;5.60;2.00;;;;;;;;;;5093175;28;20498;-34
2021/07/01 06:15:57;;;;;;;6.63;1.80;;;;;;;;;;5092418;28;20016;-32
2021/07/01 06:18:24;;;;;;;3.22;1.40;;;;;;;;;;5092629;28;20018;-32
2021/07/01 06:20:51;;;;;;;2.95;1.40;;;;;;;;;;5092127;28;20422;-33
2021/07/01 06:23:18;;;;;;;2.75;1.55;;;;;;;;;;5092366;28;20612;-33
2021/07/01 06:25:49;;;;;;;4.18;1.77;;;;;;;;;;5092155;28;20150;-35
2021/07/01 06:28:17;;;;;;;7.13;1.80;;;;;;;;;;5092591;28;20028;-33
2021/07/01 06:30:45;;;;;;;5.50;1.77;;;;;;;;;;5092257;28;20020;-29
2021/07/01 06:33:14;;;;;;;2.72;1.50;;;;;;;;;;5092204;28;20111;-37
2021/07/01 06:35:48;;;;;;;5.15;1.50;;;;;;;;;;5092259;28;20475;-34
2021/07/01 06:38:16;;;;;;;3.85;1.67;;;;;;;;;;5091681;28;20105;-35
2021/07/01 06:40:45;;;;;;;6.15;2.15;;;;;;;;;;5092056;28;20048;-35
2021/07/01 06:43:14;;;;;;;3.33;1.63;;;;;;;;;;5091500;28;20454;-34
2021/07/01 06:45:42;;;;;;;2.78;1.50;;;;;;;;;;5092282;28;20024;-33
2021/07/01 06:48:10;;;;;;;7.60;1.40;;;;;;;;;;5091690;28;20028;-32
2021/07/01 06:50:39;;;;;;;7.45;1.73;;;;;;;;;;5091783;28;20069;-57
2021/07/01 06:53:06;;;;;;;2.83;1.77;;;;;;;;;;5091316;28;20059;-51
2021/07/01 06:55:33;;;;;;;2.72;1.50;;;;;;;;;;5091977;28;20078;-58
2021/07/01 06:58:01;;;;;;;1.98;1.33;;;;;;;;;;5073061;28;20032;-56
2021/07/01 07:00:28;;;;;;;3.00;1.60;;;;;;;;;;5091695;28;20031;-34
2021/07/01 07:02:55;;;;;;;3.60;1.60;;;;;;;;;;5090753;28;20063;-35
2021/07/01 07:05:22;;;;;;;2.65;1.70;;;;;;;;;;5091750;28;20095;-39
2021/07/01 07:07:50;;;;;;;3.20;1.83;;;;;;;;;;5091649;28;20031;-39
2021/07/01 07:10:18;;;;;;;4.22;1.52;;;;;;;;;;5091476;28;20475;-32
2021/07/01 07:12:48;;;;;;;3.40;1.40;;;;;;;;;;5091184;28;20028;-37
2021/07/01 07:15:33;;;;;;;3.05;1.60;;;;;;;;;;5091415;28;20076;-36
2021/07/01 07:18:12;;;;;;;3.33;1.70;;;;;;;;;;5091263;28;20107;-44
2021/07/01 07:20:41;;;;;;;3.53;1.80;;;;;;;;;;5091254;28;20024;-37
2021/07/01 07:23:09;;;;;;;2.85;1.27;;;;;;;;;;5091877;28;20032;-38
2021/07/01 07:25:41;;;;;;;4.10;2.55;;;;;;;;;;5091232;28;20374;-38
2021/07/01 07:28:09;;;;;;;2.97;1.52;;;;;;;;;;5091494;28;20024;-40
2021/07/01 07:30:36;;;;;;;3.55;1.25;;;;;;;;;;5091168;28;20016;-36
2021/07/01 07:33:08;;;;;;;4.50;1.70;;;;;;;;;;5091739;28;20077;-33
2021/07/01 07:35:36;;;;;;;3.05;1.70;;;;;;;;;;5091132;28;20012;-39
2021/07/01 07:38:08;;;;;;;4.05;1.70;;;;;;;;;;5091304;28;20114;-39
2021/07/01 07:40:38;;;;;;;3.17;1.43;;;;;;;;;;5090751;28;20100;-35
2021/07/01 07:43:06;;;;;;;3.00;1.50;;;;;;;;;;5091064;28;20302;-45
2021/07/01 07:45:33;;;;;;;5.40;1.60;;;;;;;;;;5090849;28;20062;-37
2021/07/01 07:48:00;;;;;;;3.92;1.77;;;;;;;;;;5091137;28;20051;-33
2021/07/01 07:50:27;;;;;;;4.35;1.80;;;;;;;;;;5091258;28;20020;-37
2021/07/01 07:52:55;;;;;;;2.78;1.33;;;;;;;;;;5090792;28;20028;-38
2021/07/01 07:55:23;;;;;;;4.80;1.60;;;;;;;;;;5091625;28;20016;-43
2021/07/01 07:57:52;;;;;;;3.60;1.70;;;;;;;;;;5090671;28;20028;-42
2021/07/01 08:00:20;;;;;;;2.08;1.30;;;;;;;;;;5091229;28;20020;-34
2021/07/01 08:02:49;;;;;;;4.32;1.40;;;;;;;;;;5090470;28;20448;-33
2021/07/01 08:05:19;;;;;;;3.67;1.60;;;;;;;;;;5091155;28;20016;-34
2021/07/01 08:07:46;;;;;;;4.80;1.98;;;;;;;;;;5090454;28;20020;-37
2021/07/01 08:10:16;;;;;;;2.30;1.45;;;;;;;;;;5090729;28;20116;-50
2021/07/01 08:12:48;;;;;;;3.25;1.85;;;;;;;;;;5090131;28;20024;-43
2021/07/01 08:15:18;;;;;;;4.57;1.70;;;;;;;;;;5094638;28;20016;-39
2021/07/01 08:17:46;;;;;;;3.10;1.60;;;;;;;;;;5094311;28;20107;-40
2021/07/01 08:20:13;;;;;;;5.32;1.80;;;;;;;;;;5094896;28;20020;-37
2021/07/01 08:22:45;;;;;;;6.35;1.83;;;;;;;;;;5094591;28;20096;-33
2021/07/01 08:25:12;;;;;;;3.58;1.60;;;;;;;;;;5094474;28;20056;-38
2021/07/01 08:27:41;;;;;;;4.72;1.80;;;;;;;;;;5094656;28;20027;-37
2021/07/01 08:30:08;;;;;;;2.35;1.48;;;;;;;;;;5094678;28;20024;-36
2021/07/01 08:32:37;;;;;;;5.25;1.63;;;;;;;;;;5094766;28;20020;-36
2021/07/01 08:35:04;;;;;;;5.30;1.60;;;;;;;;;;5094180;28;20031;-47
2021/07/01 08:37:32;;;;;;;3.38;1.67;;;;;;;;;;5094440;28;20020;-35
2021/07/01 08:40:00;;;;;;;2.55;1.65;;;;;;;;;;5093783;28;20032;-50
2021/07/01 08:42:32;;;;;;;4.97;1.77;;;;;;;;;;5094009;28;20052;-43
2021/07/01 08:45:04;;;;;;;4.78;2.20;;;;;;;;;;5093560;28;20417;-39
2021/07/01 08:47:32;;;;;;;3.85;1.55;;;;;;;;;;5094336;28;20454;-39
2021/07/01 08:50:05;;;;;;;4.28;2.03;;;;;;;;;;5093545;28;20023;-38
2021/07/01 08:52:31;;;;;;;;;;;;;;;;;;5094700;28;20115;-34
2021/07/01 08:55:00;;;;;;;3.63;1.70;;;;;;;;;;5093738;28;19904;-33
2021/07/01 08:57:33;;;;;;;3.45;1.67;;;;;;;;;;5094098;28;20020;-37
2021/07/01 09:00:01;;;;;;;3.13;1.67;;;;;;;;;;5093360;28;20054;-37
2021/07/01 09:02:33;;;;;;;3.70;1.70;;;;;;;;;;5094125;28;20119;-34
2021/07/01 09:05:03;;;;;;;4.22;1.73;;;;;;;;;;5093559;28;20077;-36
2021/07/01 09:07:32;;;;;;;4.15;1.60;;;;;;;;;;5094178;28;20020;-39
2021/07/01 09:10:04;;;;;;;5.05;1.85;;;;;;;;;;5092890;28;20105;-32
2021/07/01 09:12:32;;;;;;;2.50;1.65;;;;;;;;;;5093844;28;20082;-38
2021/07/01 09:15:00;;;;;;;2.80;1.77;;;;;;;;;;5093836;28;20024;-37
2021/07/01 09:17:29;;;;;;;4.93;1.63;;;;;;;;;;5093131;28;20020;-37
2021/07/01 09:19:57;;;;;;;3.72;1.55;;;;;;;;;;5093558;28;20379;-37
2021/07/01 09:22:25;;;;;;;4.03;1.60;;;;;;;;;;5093113;28;20028;-39
2021/07/01 09:24:52;;;;;;;3.47;2.03;;;;;;;;;;5093482;28;20046;-34
2021/07/01 09:27:20;;;;;;;4.78;1.80;;;;;;;;;;5092785;28;20024;-41
2021/07/01 09:29:48;;;;;;;5.40;1.65;;;;;;;;;;5093580;28;20023;-51
2021/07/01 09:32:17;;;;;;;2.97;1.80;;;;;;;;;;5092886;28;20036;-57
2021/07/01 09:34:45;;;;;;;4.43;1.55;;;;;;;;;;5093359;28;20615;-55
2021/07/01 09:37:12;;;;;;;4.90;1.67;;;;;;;;;;5092139;28;20024;-55
2021/07/01 09:39:39;;;;;;;2.92;1.50;;;;;;;;;;5092902;28;20413;-57
2021/07/01 09:42:07;;;;;;;3.42;1.60;;;;;;;;;;5091729;28;20472;-56
2021/07/01 09:44:37;;;;;;;3.45;1.98;;;;;;;;;;5093301;28;20020;-49
2021/07/01 09:47:06;;;;;;;4.63;1.60;;;;;;;;;;5092437;28;20028;-34
2021/07/01 09:49:43;;;;;;;5.03;1.80;;;;;;;;;;5092867;28;20056;-43
2021/07/01 09:52:15;;;;;;;6.43;1.50;;;;;;;;;;5092503;28;20024;-33
2021/07/01 09:54:48;;;;;;;2.85;1.90;;;;;;;;;;5092863;28;20078;-40
2021/07/01 09:57:18;;;;;;;3.13;1.85;;;;;;;;;;5092421;28;20036;-55
2021/07/01 09:59:48;;;;;;;4.30;1.50;;;;;;;;;;5092275;28;20020;-51
2021/07/01 10:02:17;;;;;;;2.65;1.52;;;;;;;;;;5092629;28;20063;-55
2021/07/01 10:04:45;;;;;;;4.70;1.90;;;;;;;;;;5092119;28;20092;-38
2021/07/01 10:07:13;;;;;;;3.03;1.60;;;;;;;;;;5093066;28;20479;-34
2021/07/01 10:09:40;;;;;;;4.50;1.65;;;;;;;;;;5092603;28;20012;-34
2021/07/01 10:12:33;;;;;;;4.05;1.83;;;;;;;;;;5092437;28;20020;-46
2021/07/01 10:15:05;;;;;;;2.85;1.50;;;;;;;;;;5090200;28;20036;-43
2021/07/01 10:17:32;;;;;;;3.00;1.52;;;;;;;;;;5092074;28;20491;-56
2021/07/01 10:20:09;;;;;;;4.57;1.67;;;;;;;;;;5091883;28;20020;-56
2021/07/01 10:22:41;;;;;;;3.05;1.70;;;;;;;;;;5091737;28;20040;-52
2021/07/01 10:25:09;;;;;;;5.90;1.70;;;;;;;;;;5091628;28;20020;-56
2021/07/01 10:27:43;;;;;;;4.13;1.75;;;;;;;;;;5092163;28;20741;-50
2021/07/01 10:30:28;;;;;;;2.28;1.38;;;;;;;;;;5091516;28;20024;-56
2021/07/01 10:32:56;;;;;;;5.32;1.60;;;;;;;;;;5092175;28;20471;-41
2021/07/01 10:35:28;;;;;;;3.42;1.60;;;;;;;;;;5091670;28;20356;-52
2021/07/01 10:38:11;;;;;;;3.55;1.63;;;;;;;;;;5091470;28;20027;-57
2021/07/01 10:40:44;;;;;;;4.45;2.03;;;;;;;;;;5091176;28;20036;-37
2021/07/01 10:43:13;;;;;;;10.77;2.15;;;;;;;;;;5089437;28;20091;-53
2021/07/01 10:45:51;;;;;;;24.30;2.42;;;;;;;;;;5087109;28;20020;-46
2021/07/01 10:48:19;;;;;;;5.90;1.90;;;;;;;;;;5085213;28;20032;-51
2021/07/01 10:50:47;;;;;;;8.50;1.83;;;;;;;;;;5090746;28;20044;-46
2021/07/01 10:53:32;;;;;;;10.23;2.13;;;;;;;;;;5082321;28;20375;-49
2021/07/01 10:56:01;;;;;;;5.75;1.85;;;;;;;;;;5068441;28;20087;-49
2021/07/01 10:58:29;;;;;;;3.10;1.67;;;;;;;;;;5071328;28;20109;-54
2021/07/01 11:00:58;;;;;;;4.78;1.60;;;;;;;;;;5070560;28;20789;-56
2021/07/01 11:03:26;;;;;;;3.58;1.70;;;;;;;;;;5071495;28;20040;-36
2021/07/01 11:05:53;;;;;;;6.47;1.83;;;;;;;;;;5070478;28;20021;-49
2021/07/01 11:08:25;;;;;;;4.47;2.13;;;;;;;;;;5069262;28;20100;-48
2021/07/01 11:10:52;;;;;;;4.28;1.58;;;;;;;;;;5071204;28;20075;-51
2021/07/01 11:13:23;;;;;;;4.18;1.95;;;;;;;;;;5070739;28;20052;-46
2021/07/01 11:16:04;;;;;;;3.60;1.80;;;;;;;;;;5070866;28;20078;-60
2021/07/01 11:18:44;;;;;;;2.97;1.70;;;;;;;;;;5068858;28;20020;-59
2021/07/01 11:21:13;;;;;;;4.60;1.60;;;;;;;;;;5070321;28;20503;-60
2021/07/01 11:23:41;;;;;;;3.88;1.60;;;;;;;;;;5069585;28;20033;-53
2021/07/01 11:26:28;;;;;;;3.08;1.90;;;;;;;;;;5070263;28;20496;-40
2021/07/01 11:28:56;;;;;;;3.70;1.65;;;;;;;;;;5070375;28;20032;-52
2021/07/01 11:31:41;;;;;;;4.32;1.95;;;;;;;;;;5067982;28;20492;-39
2021/07/01 11:34:26;;;;;;;3.92;1.65;;;;;;;;;;5069765;28;20056;-55
2021/07/01 11:36:54;;;;;;;2.97;1.70;;;;;;;;;;5070717;28;20502;-47
2021/07/01 11:39:28;;;;;;;3.08;1.92;;;;;;;;;;5069617;28;20032;-38
2021/07/01 11:41:57;;;;;;;5.13;2.30;;;;;;;;;;5075567;28;20040;-40
2021/07/01 11:44:24;;;;;;;5.63;1.73;;;;;;;;;;5088971;28;20495;-43
2021/07/01 11:46:52;;;;;;;5.13;1.60;;;;;;;;;;5091075;28;20392;-33
2021/07/01 11:49:21;;;;;;;5.82;1.67;;;;;;;;;;5080673;28;20024;-37
2021/07/01 11:51:48;;;;;;;7.28;2.00;;;;;;;;;;5075097;28;20116;-39
2021/07/01 11:54:15;;;;;;;9.57;2.28;;;;;;;;;;5072984;28;20484;-37
2021/07/01 11:59:42;;;;;;;6.25;1.83;;;;;;;;;;5041232;28;20033;-36
2021/07/01 12:02:09;;;;;;;4.95;1.83;;;;;;;;;;5094908;28;20101;-41
2021/07/01 12:04:38;;;;;;;4.82;1.90;;;;;;;;;;5094496;28;20073;-39
2021/07/01 12:07:17;;;;;;;4.30;2.05;;;;;;;;;;5092412;28;20070;-58
2021/07/01 12:09:44;;;;;;;6.22;2.25;;;;;;;;;;5094283;28;20016;-34
2021/07/01 12:12:15;;;;;;;6.10;1.65;;;;;;;;;;5094825;28;20034;-35
2021/07/01 12:14:44;;;;;;;7.88;2.47;;;;;;;;;;5094276;28;20024;-57
2021/07/01 12:17:11;;;;;;;3.22;1.77;;;;;;;;;;5094373;28;20009;-37
2021/07/01 12:19:59;;;;;;;5.07;1.77;;;;;;;;;;5092739;28;20070;-39
2021/07/01 12:22:44;;;;;;;4.70;1.83;;;;;;;;;;5094492;28;20368;-54
2021/07/01 12:25:33;;;;;;;6.95;1.88;;;;;;;;;;5093891;28;20020;-56
2021/07/01 12:28:07;;;;;;;5.05;1.88;;;;;;;;;;5088727;28;20020;-57
2021/07/01 12:30:57;;;;;;;4.55;1.95;;;;;;;;;;5071956;28;20036;-48
2021/07/01 12:33:39;;;;;;;3.15;1.90;;;;;;;;;;5094117;28;20414;-68
2021/07/01 12:36:08;;;;;;;4.75;1.98;;;;;;;;;;5093873;28;20077;-61
2021/07/01 12:38:36;;;;;;;3.97;1.90;;;;;;;;;;5094462;28;20103;-52
2021/07/01 12:41:05;;;;;;;5.78;2.17;;;;;;;;;;5093315;28;20023;-55
2021/07/01 12:43:44;;;;;;;5.88;1.65;;;;;;;;;;5085354;28;20044;-51
2021/07/01 12:46:12;;;;;;;10.98;2.65;;;;;;;;;;5093324;28;20054;-54
2021/07/01 12:48:41;;;;;;;3.60;1.70;;;;;;;;;;5094052;28;20023;-57
2021/07/01 12:51:26;;;;;;;3.92;1.95;;;;;;;;;;5094146;28;20024;-35
2021/07/01 12:53:53;;;;;;;5.75;1.90;;;;;;;;;;5092191;28;20031;-64
2021/07/01 12:56:30;;;;;;;3.22;1.80;;;;;;;;;;5092691;28;20062;-59
2021/07/01 12:58:57;;;;;;;7.85;1.80;;;;;;;;;;5092980;28;20020;-35
2021/07/01 13:01:24;;;;;;;4.63;1.95;;;;;;;;;;5092874;28;20024;-53
2021/07/01 13:03:56;;;;;;;5.97;1.90;;;;;;;;;;5093350;28;20051;-37
2021/07/01 13:06:25;;;;;;;8.18;2.08;;;;;;;;;;5088802;28;20673;-32
2021/07/01 13:08:52;;;;;;;6.05;1.95;;;;;;;;;;5073159;28;20476;-34
2021/07/01 13:11:19;;;;;;;6.45;2.22;;;;;;;;;;5073527;28;20070;-33
2021/07/01 13:13:56;;;;;;;4.20;2.25;;;;;;;;;;5072628;28;20074;-51
2021/07/01 13:16:23;;;;;;;6.32;2.22;;;;;;;;;;5072925;28;20032;-44
2021/07/01 13:18:50;;;;;;;6.97;2.35;;;;;;;;;;5075447;28;20016;-41
2021/07/01 13:21:17;;;;;;;6.38;1.92;;;;;;;;;;5072764;28;20020;-47
2021/07/01 13:23:44;;;;;;;4.97;2.20;;;;;;;;;;5072089;28;20063;-38
2021/07/01 13:26:15;;;;;;;5.57;2.53;;;;;;;;;;5072881;28;20036;-35
2021/07/01 13:28:42;;;;;;;4.32;2.05;;;;;;;;;;5058936;28;20024;-41
2021/07/01 13:31:09;;;;;;;9.35;2.08;;;;;;;;;;5091227;28;20031;-46
2021/07/01 13:33:37;;;;;;;6.28;2.08;;;;;;;;;;5092260;28;20107;-46
2021/07/01 13:36:08;;;;;;;5.45;2.20;;;;;;;;;;5074743;28;20032;-43
2021/07/01 13:38:37;;;;;;;6.03;2.30;;;;;;;;;;5090272;28;20151;-51
2021/07/01 13:41:04;;;;;;;6.30;1.92;;;;;;;;;;5091476;28;20107;-53
2021/07/01 13:43:31;;;;;;;5.93;2.28;;;;;;;;;;5073921;28;20049;-61
2021/07/01 13:46:00;;;;;;;7.03;1.88;;;;;;;;;;5075254;28;20160;-43
2021/07/01 13:48:29;;;;;;;3.22;1.80;;;;;;;;;;5079916;28;20024;-40
2021/07/01 13:50:57;;;;;;;8.95;2.20;;;;;;;;;;5080818;28;20021;-45
2021/07/01 13:53:25;;;;;;;4.40;2.03;;;;;;;;;;5083247;28;21141;-36
2021/07/01 13:55:52;;;;;;;6.20;2.20;;;;;;;;;;5076991;28;20068;-60
2021/07/01 13:58:23;;;;;;;10.40;2.28;;;;;;;;;;5078685;28;20370;-37
2021/07/01 14:00:52;;;;;;;5.22;2.30;;;;;;;;;;5064491;28;20491;-57
2021/07/01 14:03:23;;;;;;;5.00;2.10;;;;;;;;;;5092307;28;20040;-46
2021/07/01 14:05:54;;;;;;;7.38;2.30;;;;;;;;;;5070865;28;20016;-36
2021/07/01 14:08:34;;;;;;;7.32;2.22;;;;;;;;;;5071053;28;20027;-33
2021/07/01 14:11:07;;;;;;;12.23;2.78;;;;;;;;;;5071822;28;20031;-37
2021/07/01 14:13:36;;;;;;;6.05;2.70;;;;;;;;;;5077072;28;20036;-38
2021/07/01 14:16:05;;;;;;;9.35;2.35;;;;;;;;;;5087620;28;20505;-41
2021/07/01 14:18:33;;;;;;;7.43;2.67;;;;;;;;;;5089707;28;20402;-43
2021/07/01 14:21:00;;;;;;;7.32;2.45;;;;;;;;;;5092068;28;20016;-42
2021/07/01 14:23:28;;;;;;;3.95;1.90;;;;;;;;;;5091369;28;20063;-39
2021/07/01 14:25:58;;;;;;;10.50;2.42;;;;;;;;;;5092076;28;20081;-35
2021/07/01 14:28:33;;;;;;;9.27;2.40;;;;;;;;;;5089601;28;20077;-39
2021/07/01 14:31:11;;;;;;;5.10;2.20;;;;;;;;;;5088113;28;20100;-38
2021/07/01 14:33:57;;;;;;;7.53;2.20;;;;;;;;;;5088065;28;20024;-33
2021/07/01 14:36:29;;;;;;;6.15;2.38;;;;;;;;;;5091087;28;20038;-51
2021/07/01 14:38:58;;;;;;;8.85;2.75;;;;;;;;;;5090660;28;20059;-36
2021/07/01 14:41:30;;;;;;;7.43;2.42;;;;;;;;;;5089221;28;21206;-36
2021/07/01 14:43:57;;;;;;;;;;;;;;;;;;5090467;28;20548;-42
2021/07/01 14:46:27;;;;;;;5.90;2.08;;;;;;;;;;5090912;28;19904;-57
2021/07/01 14:48:54;;;;;;;11.40;2.85;;;;;;;;;;5090834;28;20398;-46
2021/07/01 14:51:32;;;;;;;6.38;2.15;;;;;;;;;;5090974;28;20106;-55
2021/07/01 14:54:11;;;;;;;8.05;2.50;;;;;;;;;;5078673;28;20047;-39
2021/07/01 14:56:46;;;;;;;8.57;2.58;;;;;;;;;;5074566;28;20507;-56